Remsenburg, New York
Current Conditions -  °F | °C
As of 2:53 AM on Thursday 23 Oct 2014 (Local Time) from KFOK Reporting Station
Overcast Overcast  
Wind Chill: 53°   Ceiling: 1700
Heat Index: 53°   Visibility: 10mi
Dew Point: 48°   Wind: 16mph
Humidity: 83%   Direction: 10°N
Pressure: 29.64"   Gusts: 26mph
Location:  40.81°N, 72.71°W
Report Text: KFOK 230653Z AUTO 01014G23KT 10SM OVC017 12/09 A2964 RMK AO2 PK WND 01034/0555 RAB25E45 SLP035 P0000 T01170089 TSNO
Loading
Personal Weather Stations






























Interactive Weather Map
Tropical Storm Tracking
New forecast layout! Learn more

10-Day Weather Forecast

Advertisements
Track Severe Weather on mobile